createdAt,value
2022-10-16T00:01:42.219Z,58.05
2022-10-16T00:04:09.923Z,47.58
2022-10-16T00:06:37.377Z,51.80
2022-10-16T00:09:04.892Z,50.72
2022-10-16T00:11:34.774Z,51.38
2022-10-16T00:14:03.659Z,56.97
2022-10-16T00:16:31.401Z,53.42
2022-10-16T00:19:01.940Z,54.75
2022-10-16T00:21:31.137Z,53.05
2022-10-16T00:24:17.037Z,49.28
2022-10-16T00:26:44.452Z,49.67
2022-10-16T00:29:12.251Z,53.92
2022-10-16T00:31:39.600Z,50.10
2022-10-16T00:34:07.013Z,51.92
2022-10-16T00:36:34.523Z,51.75
2022-10-16T00:39:03.729Z,54.90
2022-10-16T00:41:32.007Z,51.08
2022-10-16T00:44:02.885Z,49.67
2022-10-16T00:46:35.449Z,54.50
2022-10-16T00:49:06.024Z,53.97
2022-10-16T00:51:36.491Z,47.80
2022-10-16T00:54:07.815Z,51.00
2022-10-16T00:56:38.350Z,54.03
2022-10-16T00:59:15.248Z,48.33
2022-10-16T01:01:42.586Z,53.50
2022-10-16T01:04:10.533Z,48.38
2022-10-16T01:07:06.785Z,55.40
2022-10-16T01:10:08.844Z,52.45
2022-10-16T01:12:48.678Z,51.25
2022-10-16T01:15:26.348Z,53.65
2022-10-16T01:18:11.816Z,55.95
2022-10-16T01:20:48.681Z,54.05
2022-10-16T01:23:25.223Z,52.90
2022-10-16T01:26:30.285Z,52.42
2022-10-16T01:29:10.091Z,55.22
2022-10-16T01:31:41.900Z,52.22
2022-10-16T01:34:11.990Z,50.03
2022-10-16T01:36:49.387Z,49.65
2022-10-16T01:39:21.822Z,49.15
2022-10-16T01:41:56.031Z,55.08
2022-10-16T01:44:31.055Z,56.15
2022-10-16T01:46:58.924Z,52.42
2022-10-16T01:49:28.909Z,51.88
2022-10-16T01:54:35.152Z,52.08
2022-10-16T01:57:04.907Z,48.83
2022-10-16T01:59:39.702Z,51.25
2022-10-16T02:02:10.237Z,50.00
2022-10-16T02:04:42.001Z,49.50
2022-10-16T02:07:09.672Z,52.67
2022-10-16T02:09:37.831Z,47.65
2022-10-16T02:12:14.962Z,47.03
2022-10-16T02:14:45.274Z,47.17
2022-10-16T02:17:15.865Z,50.33
2022-10-16T02:19:45.993Z,49.65
2022-10-16T02:22:33.580Z,49.72
2022-10-16T02:25:45.735Z,49.50
2022-10-16T02:28:23.579Z,57.28
2022-10-16T02:31:05.961Z,48.47
2022-10-16T02:33:35.689Z,50.60
2022-10-16T02:36:03.686Z,53.83
2022-10-16T02:38:31.537Z,51.00
2022-10-16T02:40:59.055Z,47.90
2022-10-16T02:43:27.435Z,56.72
2022-10-16T02:45:57.629Z,48.55
2022-10-16T02:48:24.979Z,48.80
2022-10-16T02:50:52.330Z,49.22
2022-10-16T02:53:20.357Z,58.00
2022-10-16T02:55:47.657Z,52.28
2022-10-16T02:58:15.119Z,54.88
2022-10-16T03:00:43.321Z,50.95
2022-10-16T03:03:11.210Z,52.47
2022-10-16T03:05:38.608Z,51.85
2022-10-16T03:08:06.017Z,58.60
2022-10-16T03:10:33.439Z,50.55
2022-10-16T03:13:00.906Z,52.85
2022-10-16T03:15:29.798Z,50.45
2022-10-16T03:18:01.036Z,49.92
2022-10-16T03:20:28.411Z,54.10
2022-10-16T03:22:55.783Z,50.55
2022-10-16T03:25:23.460Z,50.22
2022-10-16T03:27:50.922Z,56.58
2022-10-16T03:30:18.278Z,52.65
2022-10-16T03:32:46.280Z,49.75
2022-10-16T03:35:16.324Z,56.33
2022-10-16T03:37:43.691Z,50.30
2022-10-16T03:40:11.504Z,53.17
2022-10-16T03:42:39.025Z,50.67
2022-10-16T03:45:06.988Z,52.67
2022-10-16T03:47:34.484Z,51.00
2022-10-16T03:50:01.809Z,55.38
2022-10-16T03:52:33.186Z,51.80
2022-10-16T03:55:00.580Z,50.22
2022-10-16T03:57:28.531Z,47.72
2022-10-16T03:59:56.211Z,53.72
2022-10-16T04:02:23.729Z,51.70
2022-10-16T04:04:51.141Z,51.42
2022-10-16T04:07:18.456Z,56.65
2022-10-16T04:09:45.796Z,51.63
2022-10-16T04:12:13.194Z,52.25
2022-10-16T04:14:40.533Z,51.95
2022-10-16T04:17:07.923Z,50.30
2022-10-16T04:19:35.358Z,53.38
2022-10-16T04:22:02.861Z,51.95
2022-10-16T04:24:30.270Z,52.83
2022-10-16T04:26:57.787Z,53.55
2022-10-16T04:29:25.258Z,52.22
2022-10-16T04:31:52.731Z,46.95
2022-10-16T04:34:20.069Z,50.60
2022-10-16T04:36:50.872Z,56.20
2022-10-16T04:39:18.252Z,48.83
2022-10-16T04:41:45.617Z,51.25
2022-10-16T04:44:15.717Z,53.85
2022-10-16T04:46:43.132Z,49.63
2022-10-16T04:49:10.466Z,53.15
2022-10-16T04:51:40.862Z,54.03
2022-10-16T04:54:08.251Z,50.60
2022-10-16T04:56:41.125Z,48.08
2022-10-16T04:59:08.507Z,57.35
2022-10-16T05:01:38.159Z,53.10
2022-10-16T05:04:05.732Z,55.72
2022-10-16T05:06:33.181Z,54.35
2022-10-16T05:09:00.507Z,56.67
2022-10-16T05:11:27.826Z,60.35
2022-10-16T05:13:55.972Z,53.78
2022-10-16T05:16:23.535Z,49.30
2022-10-16T05:18:53.154Z,52.35
2022-10-16T05:21:23.860Z,53.70
2022-10-16T05:23:51.198Z,51.65
2022-10-16T05:26:18.557Z,53.08
2022-10-16T05:28:45.927Z,49.75
2022-10-16T05:31:13.445Z,50.85
2022-10-16T05:33:41.942Z,54.55
2022-10-16T05:36:10.568Z,51.55
2022-10-16T05:38:38.450Z,57.63
2022-10-16T05:41:07.136Z,55.60
2022-10-16T05:43:34.449Z,58.58
2022-10-16T05:46:06.600Z,61.47
2022-10-16T05:48:34.413Z,60.63
2022-10-16T05:51:04.191Z,61.35
2022-10-16T05:53:34.263Z,62.42
2022-10-16T05:56:02.251Z,62.03
2022-10-16T05:58:32.255Z,56.78
2022-10-16T06:01:03.233Z,62.05
2022-10-16T06:03:30.647Z,62.80
2022-10-16T06:05:57.942Z,58.78
2022-10-16T06:08:25.361Z,59.03
2022-10-16T06:11:10.149Z,59.47
2022-10-16T06:13:37.624Z,61.47
2022-10-16T06:16:05.449Z,60.72
2022-10-16T06:18:32.937Z,60.08
2022-10-16T06:21:00.340Z,54.05
2022-10-16T06:23:29.644Z,60.35
2022-10-16T06:26:05.773Z,65.68
2022-10-16T06:28:33.905Z,56.25
2022-10-16T06:31:05.616Z,60.97
2022-10-16T06:33:36.841Z,57.65
2022-10-16T06:36:09.312Z,61.22
2022-10-16T06:38:37.476Z,61.45
2022-10-16T06:41:06.573Z,59.75
2022-10-16T06:43:36.629Z,64.32
2022-10-16T06:46:06.368Z,66.70
2022-10-16T06:48:33.734Z,60.35
2022-10-16T06:51:02.606Z,59.08
2022-10-16T06:53:39.653Z,62.50
2022-10-16T06:56:18.167Z,61.78
2022-10-16T06:58:45.854Z,56.55
2022-10-16T07:01:14.608Z,55.22
2022-10-16T07:03:43.623Z,60.75
2022-10-16T07:06:13.062Z,60.20
2022-10-16T07:08:43.895Z,59.42
2022-10-16T07:11:17.043Z,61.25
2022-10-16T07:13:49.330Z,62.13
2022-10-16T07:16:22.396Z,59.15
2022-10-16T07:18:50.478Z,57.78
2022-10-16T07:21:21.405Z,65.00
2022-10-16T07:23:52.690Z,62.95
2022-10-16T07:26:20.086Z,63.30
2022-10-16T07:28:47.735Z,65.10
2022-10-16T07:31:16.452Z,59.40
2022-10-16T07:33:46.147Z,62.30
2022-10-16T07:36:16.239Z,62.25
2022-10-16T07:38:47.079Z,62.05
2022-10-16T07:41:20.081Z,62.20
2022-10-16T07:43:48.896Z,61.53
2022-10-16T07:46:17.559Z,61.60
2022-10-16T07:48:48.031Z,63.40
2022-10-16T07:51:17.686Z,64.05
2022-10-16T07:53:45.094Z,63.28
2022-10-16T07:56:12.867Z,62.78
2022-10-16T07:58:40.764Z,65.10
2022-10-16T08:01:11.158Z,65.50
2022-10-16T08:03:38.643Z,58.55
2022-10-16T08:06:06.218Z,70.28
2022-10-16T08:08:33.840Z,62.83
2022-10-16T08:11:01.216Z,66.78
2022-10-16T08:13:28.540Z,62.45
2022-10-16T08:15:56.420Z,70.93
2022-10-16T08:18:24.093Z,65.55
2022-10-16T08:20:59.150Z,61.80
2022-10-16T08:23:27.491Z,68.43
2022-10-16T08:25:56.045Z,63.70
2022-10-16T08:28:24.404Z,62.90
2022-10-16T08:30:51.801Z,60.50
2022-10-16T08:33:19.231Z,60.42
2022-10-16T08:35:54.681Z,60.55
2022-10-16T08:38:22.598Z,53.97
2022-10-16T08:40:55.438Z,55.47
2022-10-16T08:43:58.098Z,55.55
2022-10-16T08:46:53.403Z,54.03
2022-10-16T08:49:21.094Z,51.97
2022-10-16T08:51:50.560Z,52.40
2022-10-16T08:54:21.068Z,57.47
2022-10-16T08:56:48.417Z,52.70
2022-10-16T08:59:17.946Z,51.08
2022-10-16T09:01:48.123Z,50.83
2022-10-16T09:04:27.398Z,51.00
2022-10-16T09:07:17.403Z,50.25
2022-10-16T09:10:03.677Z,51.55
2022-10-16T09:12:36.743Z,51.67
2022-10-16T09:15:12.878Z,48.55
2022-10-16T09:17:48.043Z,52.30
2022-10-16T09:20:46.058Z,54.92
2022-10-16T09:23:19.882Z,53.42
2022-10-16T09:25:50.369Z,55.92
2022-10-16T09:28:19.511Z,53.03
2022-10-16T09:30:49.590Z,56.47
2022-10-16T09:33:20.126Z,54.38
2022-10-16T09:35:54.012Z,57.60
2022-10-16T09:38:26.275Z,56.67
2022-10-16T09:41:02.391Z,54.20
2022-10-16T09:43:42.850Z,57.83
2022-10-16T09:46:22.334Z,56.03
2022-10-16T09:48:52.449Z,56.67
2022-10-16T09:51:26.510Z,49.35
2022-10-16T09:54:21.921Z,45.45
2022-10-16T09:56:54.795Z,49.15
2022-10-16T09:59:27.746Z,48.30
2022-10-16T10:01:56.203Z,46.28
2022-10-16T10:04:26.702Z,46.38
2022-10-16T10:06:57.270Z,49.65
2022-10-16T10:09:32.412Z,47.05
2022-10-16T10:12:05.202Z,47.08
2022-10-16T10:14:48.750Z,37.67
2022-10-16T10:17:19.292Z,42.47
2022-10-16T10:19:57.846Z,50.58
2022-10-16T10:22:25.522Z,47.67
2022-10-16T10:25:12.007Z,46.03
2022-10-16T10:27:57.361Z,47.85
2022-10-16T10:30:51.308Z,43.55
2022-10-16T10:33:31.382Z,44.28
2022-10-16T10:36:09.732Z,42.35
2022-10-16T10:38:57.581Z,40.92
2022-10-16T10:41:41.718Z,44.38
2022-10-16T10:44:38.231Z,43.70
2022-10-16T10:47:13.834Z,43.03
2022-10-16T10:49:58.061Z,42.63
2022-10-16T10:52:51.368Z,42.95
2022-10-16T10:55:46.702Z,42.05
2022-10-16T10:58:48.090Z,42.83
2022-10-16T11:01:19.862Z,48.92
2022-10-16T11:03:59.428Z,45.72
2022-10-16T11:06:32.591Z,45.75
2022-10-16T11:09:37.893Z,52.45
2022-10-16T11:12:27.222Z,48.65
2022-10-16T11:15:22.804Z,51.13
2022-10-16T11:18:02.654Z,48.78
2022-10-16T11:20:38.714Z,57.72
2022-10-16T11:23:19.898Z,47.97
2022-10-16T11:25:49.245Z,53.03
2022-10-16T11:28:22.081Z,52.33
2022-10-16T11:31:01.076Z,49.15
2022-10-16T11:33:38.696Z,53.90
2022-10-16T11:36:29.695Z,51.85
2022-10-16T11:39:09.935Z,53.33
2022-10-16T11:41:51.593Z,55.33
2022-10-16T11:44:34.170Z,49.47
2022-10-16T11:47:39.846Z,53.05
2022-10-16T11:50:42.831Z,50.22
2022-10-16T11:53:28.565Z,52.40
2022-10-16T11:55:55.922Z,56.97
2022-10-16T11:58:23.907Z,51.38
2022-10-16T12:01:08.284Z,58.63
2022-10-16T12:03:39.972Z,61.63
2022-10-16T12:06:44.598Z,54.38
2022-10-16T12:09:26.803Z,55.38
2022-10-16T12:14:30.278Z,53.72
2022-10-16T12:17:00.780Z,53.08
2022-10-16T12:19:31.239Z,59.20
2022-10-16T12:22:04.386Z,58.97
2022-10-16T12:24:34.467Z,50.97
2022-10-16T12:27:02.711Z,52.70
2022-10-16T12:29:37.089Z,48.95
2022-10-16T12:32:41.839Z,51.85
2022-10-16T12:35:21.685Z,50.85
2022-10-16T12:37:49.527Z,51.47
2022-10-16T12:40:30.741Z,55.53
2022-10-16T12:42:58.658Z,63.57
2022-10-16T12:45:30.496Z,51.97
2022-10-16T12:47:59.130Z,51.83
2022-10-16T12:50:31.983Z,52.83
2022-10-16T12:53:01.515Z,47.53
2022-10-16T12:55:36.366Z,52.95
2022-10-16T12:58:17.141Z,49.45
2022-10-16T13:01:06.053Z,56.70
2022-10-16T13:03:39.429Z,47.20
2022-10-16T13:06:12.864Z,47.70
2022-10-16T13:08:45.994Z,49.75
2022-10-16T13:11:25.598Z,44.40
2022-10-16T13:14:07.822Z,49.90
2022-10-16T13:16:50.078Z,46.28
2022-10-16T13:19:35.821Z,47.10
2022-10-16T13:22:05.819Z,45.75
2022-10-16T13:24:47.455Z,50.15
2022-10-16T13:30:03.483Z,46.97
2022-10-16T13:32:32.072Z,48.42
2022-10-16T13:35:01.215Z,49.17
2022-10-16T13:37:28.993Z,42.90
2022-10-16T13:40:29.172Z,48.47
2022-10-16T13:42:57.113Z,44.88
2022-10-16T13:45:26.477Z,44.72
2022-10-16T13:48:10.319Z,47.47
2022-10-16T13:50:37.676Z,44.25
2022-10-16T13:53:14.247Z,43.45
2022-10-16T13:55:41.898Z,40.63
2022-10-16T13:58:13.719Z,40.35
2022-10-16T14:00:53.923Z,49.13
2022-10-16T14:03:21.722Z,43.80
2022-10-16T14:06:19.309Z,45.40
2022-10-16T14:08:52.767Z,44.85
2022-10-16T14:11:27.360Z,43.65
2022-10-16T14:13:55.703Z,40.70
2022-10-16T14:16:26.803Z,38.83
2022-10-16T14:19:12.080Z,42.50
2022-10-16T14:21:41.866Z,40.03
2022-10-16T14:24:27.325Z,43.38
2022-10-16T14:26:57.953Z,40.63
2022-10-16T14:29:27.554Z,42.33
2022-10-16T14:31:57.785Z,41.03
2022-10-16T14:34:36.342Z,39.40
2022-10-16T14:37:27.844Z,43.88
2022-10-16T14:39:57.057Z,42.45
2022-10-16T14:42:26.676Z,42.70
2022-10-16T14:44:56.487Z,54.00
2022-10-16T14:47:27.747Z,43.90
2022-10-16T14:49:57.001Z,43.38
2022-10-16T14:52:24.428Z,46.47
2022-10-16T14:54:55.657Z,44.17
2022-10-16T14:57:31.093Z,52.88
2022-10-16T14:59:58.547Z,46.55
2022-10-16T15:02:33.143Z,40.72
2022-10-16T15:05:12.256Z,45.47
2022-10-16T15:07:39.627Z,42.95
2022-10-16T15:10:07.130Z,44.63
2022-10-16T15:12:34.514Z,44.15
2022-10-16T15:15:01.944Z,43.42
2022-10-16T15:17:29.640Z,41.78
2022-10-16T15:19:59.395Z,39.75
2022-10-16T15:22:26.985Z,36.50
2022-10-16T15:24:54.417Z,38.15
2022-10-16T15:27:21.845Z,37.42
2022-10-16T15:29:49.199Z,36.88
2022-10-16T15:32:16.604Z,36.90
2022-10-16T15:34:43.890Z,40.15
2022-10-16T15:37:12.949Z,38.45
2022-10-16T15:39:41.346Z,38.72
2022-10-16T15:42:08.975Z,38.60
2022-10-16T15:44:36.314Z,39.97
2022-10-16T15:47:03.655Z,43.05
2022-10-16T15:49:30.990Z,38.92
2022-10-16T15:51:58.643Z,35.35
2022-10-16T15:54:26.009Z,38.03
2022-10-16T15:56:53.346Z,40.33
2022-10-16T15:59:21.838Z,35.63
2022-10-16T16:01:49.229Z,49.00
2022-10-16T16:04:42.262Z,50.72
2022-10-16T16:07:08.236Z,48.17
2022-10-16T16:09:35.752Z,49.83
2022-10-16T16:12:03.226Z,47.97
2022-10-16T16:14:30.559Z,47.30
2022-10-16T16:16:58.425Z,45.90
2022-10-16T16:19:25.774Z,46.83
2022-10-16T16:21:53.197Z,48.13
2022-10-16T16:24:21.142Z,48.38
2022-10-16T16:26:48.482Z,47.38
2022-10-16T16:29:17.066Z,46.20
2022-10-16T16:31:44.581Z,46.47
2022-10-16T16:34:12.038Z,46.63
2022-10-16T16:36:40.931Z,50.72
2022-10-16T16:39:08.760Z,53.95
2022-10-16T16:41:37.149Z,53.83
2022-10-16T16:44:09.646Z,56.88
2022-10-16T16:46:38.074Z,57.67
2022-10-16T16:49:05.414Z,54.20
2022-10-16T16:51:37.003Z,52.70
2022-10-16T16:54:13.014Z,56.10
2022-10-16T16:56:43.519Z,54.38
2022-10-16T16:59:14.954Z,57.08
2022-10-16T17:01:42.572Z,55.55
2022-10-16T17:04:11.257Z,51.80
2022-10-16T17:06:38.912Z,51.55
2022-10-16T17:09:07.329Z,56.13
2022-10-16T17:11:35.138Z,49.58
2022-10-16T17:14:05.790Z,55.90
2022-10-16T17:16:38.229Z,53.15
2022-10-16T17:19:08.286Z,59.35
2022-10-16T17:21:36.327Z,52.22
2022-10-16T17:24:04.780Z,58.30
2022-10-16T17:26:32.832Z,55.08
2022-10-16T17:29:02.184Z,55.15
2022-10-16T17:31:35.208Z,53.08
2022-10-16T17:34:05.153Z,55.08
2022-10-16T17:36:36.382Z,55.13
2022-10-16T17:39:07.072Z,52.60
2022-10-16T17:41:35.626Z,58.25
2022-10-16T17:44:05.450Z,58.30
2022-10-16T17:46:36.962Z,54.20
2022-10-16T17:49:07.566Z,60.80
2022-10-16T17:51:34.915Z,62.42
2022-10-16T17:54:02.447Z,59.55
2022-10-16T17:56:30.418Z,56.30
2022-10-16T17:59:00.847Z,64.60
2022-10-16T18:01:31.914Z,62.13
2022-10-16T18:04:10.609Z,57.60
2022-10-16T18:06:38.216Z,64.32
2022-10-16T18:09:07.999Z,60.35
2022-10-16T18:11:35.830Z,64.45
2022-10-16T18:14:04.222Z,61.83
2022-10-16T18:16:32.900Z,60.65
2022-10-16T18:19:02.974Z,59.00
2022-10-16T18:21:31.224Z,61.58
2022-10-16T18:23:59.953Z,64.78
2022-10-16T18:26:30.258Z,55.38
2022-10-16T18:28:58.257Z,61.03
2022-10-16T18:31:26.845Z,57.53
2022-10-16T18:33:55.751Z,59.08
2022-10-16T18:36:32.459Z,60.00
2022-10-16T18:39:04.484Z,56.75
2022-10-16T18:44:00.101Z,54.20
2022-10-16T18:46:28.847Z,63.50
2022-10-16T18:49:00.513Z,58.75
2022-10-16T18:51:31.032Z,56.33
2022-10-16T18:54:00.564Z,57.85
2022-10-16T18:56:30.453Z,61.33
2022-10-16T18:59:00.976Z,56.95
2022-10-16T19:01:30.942Z,58.28
2022-10-16T19:04:04.627Z,57.92
2022-10-16T19:06:35.465Z,57.17
2022-10-16T19:09:03.886Z,56.08
2022-10-16T19:11:32.089Z,56.90
2022-10-16T19:13:59.818Z,59.10
2022-10-16T19:16:30.594Z,58.75
2022-10-16T19:19:00.643Z,62.50
2022-10-16T19:21:29.677Z,63.75
2022-10-16T19:24:02.186Z,63.20
2022-10-16T19:26:31.543Z,59.00
2022-10-16T19:29:00.879Z,59.20
2022-10-16T19:31:30.101Z,60.45
2022-10-16T19:33:59.897Z,64.13
2022-10-16T19:36:30.514Z,59.00
2022-10-16T19:39:04.105Z,58.53
2022-10-16T19:41:32.566Z,61.10
2022-10-16T19:44:05.412Z,59.20
2022-10-16T19:46:33.846Z,56.75
2022-10-16T19:49:04.044Z,66.13
2022-10-16T19:51:31.926Z,59.90
2022-10-16T19:54:02.108Z,54.65
2022-10-16T19:56:34.200Z,60.78
2022-10-16T19:59:02.218Z,54.97
2022-10-16T20:01:32.267Z,60.38
2022-10-16T20:04:00.789Z,61.17
2022-10-16T20:06:28.546Z,62.35
2022-10-16T20:08:58.236Z,57.70
2022-10-16T20:11:29.180Z,59.25
2022-10-16T20:13:56.942Z,59.25
2022-10-16T20:16:25.536Z,58.28
2022-10-16T20:18:53.599Z,62.28
2022-10-16T20:21:26.625Z,66.20
2022-10-16T20:23:54.546Z,59.78
2022-10-16T20:26:24.427Z,59.42
2022-10-16T20:28:55.505Z,58.70
2022-10-16T20:31:26.477Z,59.22
2022-10-16T20:33:57.229Z,58.55
2022-10-16T20:36:26.910Z,62.17
2022-10-16T20:38:54.459Z,58.38
2022-10-16T20:41:22.760Z,57.63
2022-10-16T20:43:55.066Z,57.63
2022-10-16T20:46:24.747Z,57.45
2022-10-16T20:48:53.663Z,55.92
2022-10-16T20:51:26.955Z,59.20
2022-10-16T20:53:57.082Z,56.78
2022-10-16T20:56:26.744Z,63.65
2022-10-16T20:58:54.313Z,56.22
2022-10-16T21:01:25.434Z,58.20
2022-10-16T21:03:58.510Z,57.17
2022-10-16T21:06:26.711Z,54.30
2022-10-16T21:08:54.506Z,66.90
2022-10-16T21:11:27.466Z,58.22
2022-10-16T21:13:59.529Z,59.90
2022-10-16T21:18:55.172Z,57.05
2022-10-16T21:21:29.659Z,55.72
2022-10-16T21:23:59.026Z,59.08
2022-10-16T21:26:27.318Z,60.85
2022-10-16T21:28:59.995Z,59.70
2022-10-16T21:31:28.226Z,58.40
2022-10-16T21:33:56.595Z,61.28
2022-10-16T21:36:28.723Z,57.53
2022-10-16T21:41:26.698Z,59.42
2022-10-16T21:43:55.558Z,61.15
2022-10-16T21:46:25.880Z,60.60
2022-10-16T21:48:54.426Z,57.28
2022-10-16T21:51:29.015Z,60.10
2022-10-16T21:53:56.284Z,53.80
2022-10-16T21:56:23.690Z,58.25
2022-10-16T21:58:51.870Z,58.40
2022-10-16T22:01:23.819Z,53.65
2022-10-16T22:08:55.874Z,60.55
2022-10-16T22:11:36.618Z,58.67
2022-10-16T22:14:10.547Z,55.53
2022-10-16T22:16:38.662Z,58.33
2022-10-16T22:19:09.128Z,56.85
2022-10-16T22:21:38.444Z,57.08
2022-10-16T22:24:06.923Z,57.97
2022-10-16T22:26:35.691Z,56.38
2022-10-16T22:29:04.536Z,59.90
2022-10-16T22:31:31.974Z,61.35
2022-10-16T22:34:01.753Z,55.80
2022-10-16T22:36:29.362Z,56.05
2022-10-16T22:38:57.554Z,53.47
2022-10-16T22:41:25.317Z,54.60
2022-10-16T22:43:53.001Z,56.35
2022-10-16T22:46:26.033Z,59.95
2022-10-16T22:48:56.378Z,59.28
2022-10-16T22:51:25.867Z,55.50
2022-10-16T22:53:53.388Z,53.95
2022-10-16T22:56:22.163Z,55.67
2022-10-16T22:58:50.071Z,56.88
2022-10-16T23:01:30.875Z,52.17
2022-10-16T23:04:01.245Z,54.25
2022-10-16T23:06:30.035Z,60.20
2022-10-16T23:08:59.522Z,57.53
2022-10-16T23:11:28.706Z,52.08
2022-10-16T23:13:56.352Z,54.42
2022-10-16T23:16:26.202Z,52.83
2022-10-16T23:18:53.985Z,54.95
2022-10-16T23:21:23.933Z,50.22
2022-10-16T23:23:52.672Z,53.47
2022-10-16T23:26:23.503Z,63.60
2022-10-16T23:28:50.952Z,57.67
2022-10-16T23:31:19.482Z,61.25
2022-10-16T23:33:46.877Z,56.50
2022-10-16T23:36:17.157Z,58.15
2022-10-16T23:38:45.026Z,55.03
2022-10-16T23:41:13.070Z,55.40
2022-10-16T23:43:41.047Z,58.20
2022-10-16T23:46:11.761Z,55.97
2022-10-16T23:48:39.760Z,55.42
2022-10-16T23:51:08.478Z,52.92
2022-10-16T23:53:36.145Z,60.50
2022-10-16T23:56:03.963Z,58.00
2022-10-16T23:58:31.425Z,61.80
